createdAt,value
2018-04-06T00:00:14.287Z,0.00
2018-04-06T00:01:14.378Z,0.00
2018-04-06T00:02:14.462Z,0.00
2018-04-06T00:03:14.552Z,0.00
2018-04-06T00:04:14.640Z,0.00
2018-04-06T00:05:14.731Z,0.00
2018-04-06T00:06:14.838Z,0.00
2018-04-06T00:07:14.924Z,0.00
2018-04-06T00:08:15.016Z,0.00
2018-04-06T00:09:15.100Z,0.00
2018-04-06T00:10:15.190Z,0.00
2018-04-06T00:11:15.278Z,0.00
2018-04-06T00:12:15.373Z,0.00
2018-04-06T00:13:15.462Z,0.00
2018-04-06T00:14:15.547Z,0.00
2018-04-06T00:15:15.638Z,0.00
2018-04-06T00:16:15.726Z,0.00
2018-04-06T00:17:15.814Z,0.00
2018-04-06T00:18:15.904Z,0.00
2018-04-06T00:19:16.000Z,0.00
2018-04-06T00:20:16.079Z,0.00
2018-04-06T00:21:16.167Z,0.00
2018-04-06T00:22:16.270Z,0.00
2018-04-06T00:23:16.362Z,0.00
2018-04-06T00:24:16.448Z,0.00
2018-04-06T00:25:16.534Z,0.00
2018-04-06T00:26:16.621Z,0.00
2018-04-06T00:27:16.716Z,0.00
2018-04-06T00:28:16.815Z,0.00
2018-04-06T00:29:16.897Z,0.00
2018-04-06T00:30:16.992Z,0.00
2018-04-06T00:31:17.078Z,0.00
2018-04-06T00:32:17.166Z,0.00
2018-04-06T00:33:17.256Z,0.00
2018-04-06T00:34:17.342Z,0.00
2018-04-06T00:35:17.427Z,0.00
2018-04-06T00:36:17.527Z,0.00
2018-04-06T00:37:17.605Z,0.00
2018-04-06T00:38:17.695Z,0.00
2018-04-06T00:39:17.783Z,0.00
2018-04-06T00:40:17.875Z,0.00
2018-04-06T00:41:17.965Z,0.00
2018-04-06T00:42:18.055Z,0.00
2018-04-06T00:43:18.144Z,0.00
2018-04-06T00:44:18.230Z,0.00
2018-04-06T00:45:18.316Z,0.00
2018-04-06T00:46:18.403Z,0.00
2018-04-06T00:47:18.493Z,0.00
2018-04-06T00:48:18.578Z,0.00
2018-04-06T00:49:18.667Z,0.00
2018-04-06T00:50:18.750Z,0.00
2018-04-06T00:51:18.841Z,0.00
2018-04-06T00:52:18.936Z,0.00
2018-04-06T00:53:19.021Z,0.00
2018-04-06T00:54:19.128Z,0.00
2018-04-06T00:55:19.197Z,0.00
2018-04-06T00:56:19.280Z,0.00
2018-04-06T00:57:19.368Z,0.00
2018-04-06T00:58:19.455Z,0.00
2018-04-06T00:59:19.543Z,0.00
2018-04-06T01:00:19.628Z,0.00
2018-04-06T01:01:19.721Z,0.00
2018-04-06T01:02:19.828Z,0.00
2018-04-06T01:03:19.921Z,0.00
2018-04-06T01:04:20.006Z,0.00
2018-04-06T01:05:20.093Z,0.00
2018-04-06T01:06:20.181Z,0.00
2018-04-06T01:07:20.269Z,0.00
2018-04-06T01:08:20.357Z,0.00
2018-04-06T01:09:20.446Z,0.00
2018-04-06T01:10:20.530Z,0.00
2018-04-06T01:11:20.638Z,0.00
2018-04-06T01:12:21.634Z,0.00
2018-04-06T01:13:20.805Z,0.00
2018-04-06T01:14:20.878Z,0.00
2018-04-06T01:15:20.960Z,0.00
2018-04-06T01:16:21.097Z,0.00
2018-04-06T01:17:21.184Z,0.00
2018-04-06T01:18:21.312Z,0.00
2018-04-06T01:19:21.383Z,0.00
2018-04-06T01:20:21.511Z,0.00
2018-04-06T01:21:21.589Z,0.00
2018-04-06T01:22:21.714Z,0.00
2018-04-06T01:23:21.805Z,0.00
2018-04-06T01:24:21.904Z,0.00
2018-04-06T01:25:21.997Z,0.00
2018-04-06T01:26:22.078Z,0.00
2018-04-06T01:27:22.167Z,0.00
2018-04-06T01:28:22.258Z,0.00
2018-04-06T01:29:22.359Z,0.00
2018-04-06T01:30:22.549Z,0.00
2018-04-06T01:31:22.507Z,0.00
2018-04-06T01:32:22.598Z,0.00
2018-04-06T01:33:22.689Z,0.00
2018-04-06T01:34:22.762Z,0.00
2018-04-06T01:35:22.840Z,0.00
2018-04-06T01:36:22.955Z,0.00
2018-04-06T01:37:23.049Z,0.00
2018-04-06T01:38:23.131Z,0.00
2018-04-06T01:39:23.219Z,0.00
2018-04-06T01:40:23.315Z,0.00
2018-04-06T01:41:23.406Z,0.00
2018-04-06T01:42:23.500Z,0.00
2018-04-06T01:43:23.585Z,0.00
2018-04-06T01:44:23.654Z,0.00
2018-04-06T01:45:23.743Z,0.00
2018-04-06T01:46:23.860Z,0.00
2018-04-06T01:47:23.955Z,0.00
2018-04-06T01:48:24.039Z,0.00
2018-04-06T01:49:24.121Z,0.00
2018-04-06T01:50:24.205Z,0.00
2018-04-06T01:51:24.287Z,0.00
2018-04-06T01:52:24.368Z,0.00
2018-04-06T01:53:24.507Z,0.00
2018-04-06T01:54:24.642Z,0.00
2018-04-06T01:55:24.732Z,0.00
2018-04-06T01:56:24.828Z,0.00
2018-04-06T01:57:24.904Z,0.00
2018-04-06T01:58:25.020Z,0.00
2018-04-06T01:59:25.160Z,0.00
2018-04-06T02:00:25.249Z,0.00
2018-04-06T02:01:25.346Z,0.00
2018-04-06T02:02:25.435Z,0.00
2018-04-06T02:03:25.516Z,0.00
2018-04-06T02:04:25.611Z,0.00
2018-04-06T02:05:25.693Z,0.00
2018-04-06T02:06:25.789Z,0.00
2018-04-06T02:07:25.864Z,0.00
2018-04-06T02:08:25.938Z,0.00
2018-04-06T02:09:26.025Z,0.00
2018-04-06T02:10:26.123Z,0.00
2018-04-06T02:11:26.222Z,0.00
2018-04-06T02:12:26.310Z,0.00
2018-04-06T02:13:26.399Z,0.00
2018-04-06T02:14:26.484Z,0.00
2018-04-06T02:15:26.580Z,0.00
2018-04-06T02:16:26.671Z,0.00
2018-04-06T02:17:26.751Z,0.00
2018-04-06T02:18:26.860Z,0.00
2018-04-06T02:19:26.980Z,0.00
2018-04-06T02:20:27.071Z,0.00
2018-04-06T02:21:27.145Z,0.00
2018-04-06T02:22:27.226Z,0.00
2018-04-06T02:23:27.338Z,0.00
2018-04-06T02:24:27.463Z,0.00
2018-04-06T02:25:27.532Z,0.00
2018-04-06T02:26:27.659Z,0.00
2018-04-06T02:27:27.749Z,0.00
2018-04-06T02:28:27.840Z,0.00
2018-04-06T02:29:27.929Z,0.00
2018-04-06T02:30:28.032Z,0.00
2018-04-06T02:31:28.119Z,0.00
2018-04-06T02:32:28.203Z,0.00
2018-04-06T02:33:28.297Z,0.00
2018-04-06T02:34:28.375Z,0.00
2018-04-06T02:35:28.468Z,0.00
2018-04-06T02:36:28.559Z,0.00
2018-04-06T02:37:28.659Z,0.00
2018-04-06T02:38:28.746Z,0.00
2018-04-06T02:39:28.844Z,0.00
2018-04-06T02:40:28.951Z,0.00
2018-04-06T02:41:29.039Z,0.00
2018-04-06T02:42:29.123Z,0.00
2018-04-06T02:43:29.221Z,0.00
2018-04-06T02:44:29.309Z,0.00
2018-04-06T02:45:29.388Z,0.00
2018-04-06T02:46:29.473Z,0.00
2018-04-06T02:47:29.547Z,0.00
2018-04-06T02:48:29.631Z,0.00
2018-04-06T02:49:29.729Z,0.00
2018-04-06T02:50:29.808Z,0.00
2018-04-06T02:51:29.915Z,0.00
2018-04-06T02:52:29.995Z,0.00
2018-04-06T02:53:30.105Z,0.00
2018-04-06T02:54:30.191Z,0.00
2018-04-06T02:55:30.269Z,0.00
2018-04-06T02:56:30.357Z,4.00
2018-04-06T02:57:30.433Z,0.00
2018-04-06T02:58:30.524Z,0.00
2018-04-06T02:59:30.609Z,0.00
2018-04-06T03:00:30.688Z,0.00
2018-04-06T03:01:30.787Z,0.00
2018-04-06T03:02:30.865Z,0.00
2018-04-06T03:03:30.947Z,0.00
2018-04-06T03:04:31.026Z,0.00
2018-04-06T03:05:31.106Z,0.00
2018-04-06T03:06:31.194Z,0.00
2018-04-06T03:07:31.277Z,0.00
2018-04-06T03:08:31.365Z,0.00
2018-04-06T03:09:31.447Z,0.00
2018-04-06T03:10:31.531Z,0.00
2018-04-06T03:11:31.612Z,0.00
2018-04-06T03:12:31.700Z,0.00
2018-04-06T03:13:31.795Z,0.00
2018-04-06T03:14:31.882Z,0.00
2018-04-06T03:15:31.962Z,0.00
2018-04-06T03:16:32.045Z,0.00
2018-04-06T03:17:32.130Z,0.00
2018-04-06T03:18:32.218Z,0.00
2018-04-06T03:19:32.308Z,0.00
2018-04-06T03:20:32.395Z,0.00
2018-04-06T03:21:32.486Z,0.00
2018-04-06T03:22:32.578Z,0.00
2018-04-06T03:23:32.667Z,0.00
2018-04-06T03:24:32.755Z,0.00
2018-04-06T03:25:32.846Z,0.00
2018-04-06T03:26:32.935Z,0.00
2018-04-06T03:27:33.027Z,0.00
2018-04-06T03:28:33.111Z,0.00
2018-04-06T03:29:33.197Z,0.00
2018-04-06T03:30:33.296Z,0.00
2018-04-06T03:31:33.373Z,0.00
2018-04-06T03:32:33.464Z,0.00
2018-04-06T03:33:33.552Z,0.00
2018-04-06T03:34:33.665Z,0.00
2018-04-06T03:35:33.753Z,0.00
2018-04-06T03:36:33.840Z,0.00
2018-04-06T03:37:33.932Z,0.00
2018-04-06T03:38:34.019Z,0.00
2018-04-06T03:39:34.110Z,0.00
2018-04-06T03:40:34.203Z,0.00
2018-04-06T03:41:34.294Z,0.00
2018-04-06T03:42:34.377Z,0.00
2018-04-06T03:43:34.465Z,0.00
2018-04-06T03:44:34.552Z,0.00
2018-04-06T03:45:34.643Z,0.00
2018-04-06T03:46:34.728Z,0.00
2018-04-06T03:47:34.811Z,0.00
2018-04-06T03:48:34.900Z,0.00
2018-04-06T03:49:34.990Z,0.00
2018-04-06T03:50:35.069Z,0.00
2018-04-06T03:51:35.152Z,0.00
2018-04-06T03:52:35.231Z,0.00
2018-04-06T03:53:35.320Z,0.00
2018-04-06T03:54:35.413Z,0.00
2018-04-06T03:55:35.501Z,0.00
2018-04-06T03:56:35.584Z,0.00
2018-04-06T03:57:35.680Z,0.00
2018-04-06T03:58:35.772Z,0.00
2018-04-06T03:59:35.862Z,0.00
2018-04-06T04:00:35.949Z,0.00
2018-04-06T04:01:36.037Z,0.00
2018-04-06T04:02:36.120Z,0.00
2018-04-06T04:03:36.210Z,0.00
2018-04-06T04:04:36.294Z,0.00
2018-04-06T04:05:36.386Z,0.00
2018-04-06T04:06:36.473Z,0.00
2018-04-06T04:07:36.560Z,0.00
2018-04-06T04:08:36.646Z,0.00
2018-04-06T04:09:36.744Z,4.00
2018-04-06T04:10:36.826Z,4.00
2018-04-06T04:11:36.916Z,4.00
2018-04-06T04:12:37.002Z,4.00
2018-04-06T04:13:37.093Z,4.00
2018-04-06T04:14:37.177Z,0.00
2018-04-06T04:15:37.272Z,4.00
2018-04-06T04:16:37.360Z,4.00
2018-04-06T04:17:37.448Z,4.00
2018-04-06T04:18:37.543Z,4.00
2018-04-06T04:19:37.628Z,4.00
2018-04-06T04:20:37.716Z,4.00
2018-04-06T04:21:37.804Z,8.00
2018-04-06T04:22:37.895Z,8.00
2018-04-06T04:23:37.984Z,8.00
2018-04-06T04:24:38.071Z,12.00
2018-04-06T04:25:38.161Z,12.00
2018-04-06T04:26:38.247Z,12.00
2018-04-06T04:27:38.335Z,16.00
2018-04-06T04:28:38.423Z,16.00
2018-04-06T04:29:38.514Z,20.00
2018-04-06T04:30:38.603Z,24.00
2018-04-06T04:31:38.690Z,28.00
2018-04-06T04:32:38.777Z,36.00
2018-04-06T04:33:38.862Z,40.00
2018-04-06T04:34:38.951Z,44.00
2018-04-06T04:35:39.036Z,52.00
2018-04-06T04:36:39.150Z,60.00
2018-04-06T04:37:39.240Z,68.00
2018-04-06T04:38:39.330Z,76.00
2018-04-06T04:39:39.418Z,88.00
2018-04-06T04:40:39.504Z,100.00
2018-04-06T04:41:39.591Z,112.00
2018-04-06T04:42:39.678Z,124.00
2018-04-06T04:43:39.767Z,140.00
2018-04-06T04:44:39.857Z,152.00
2018-04-06T04:45:39.944Z,168.00
2018-04-06T04:46:40.036Z,184.00
2018-04-06T04:47:40.120Z,200.00
2018-04-06T04:48:40.209Z,216.00
2018-04-06T04:49:40.295Z,236.00
2018-04-06T04:50:40.386Z,260.00
2018-04-06T04:51:40.475Z,284.00
2018-04-06T04:52:40.565Z,304.00
2018-04-06T04:53:40.649Z,332.00
2018-04-06T04:54:40.728Z,352.00
2018-04-06T04:55:40.811Z,380.00
2018-04-06T04:56:40.902Z,408.00
2018-04-06T04:57:41.000Z,436.00
2018-04-06T04:58:41.088Z,464.00
2018-04-06T04:59:41.171Z,496.00
2018-04-06T05:00:41.263Z,520.00
2018-04-06T05:01:41.351Z,552.00
2018-04-06T05:02:41.439Z,588.00
2018-04-06T05:03:41.531Z,624.00
2018-04-06T05:04:41.617Z,648.00
2018-04-06T05:05:41.710Z,680.00
2018-04-06T05:06:41.795Z,712.00
2018-04-06T05:07:41.900Z,740.00
2018-04-06T05:08:41.985Z,776.00
2018-04-06T05:09:42.076Z,800.00
2018-04-06T05:10:42.166Z,828.00
2018-04-06T05:11:42.253Z,852.00
2018-04-06T05:12:42.340Z,888.00
2018-04-06T05:13:42.440Z,924.00
2018-04-06T05:14:42.516Z,956.00
2018-04-06T05:15:42.608Z,984.00
2018-04-06T05:16:42.700Z,1000.00
2018-04-06T05:17:42.791Z,1012.00
2018-04-06T05:18:42.881Z,1036.00
2018-04-06T05:19:43.071Z,1072.00
2018-04-06T05:20:43.041Z,1120.00
2018-04-06T05:21:43.111Z,1156.00
2018-04-06T05:22:43.205Z,1192.00
2018-04-06T05:23:43.296Z,1236.00
2018-04-06T05:24:43.373Z,1284.00
2018-04-06T05:25:44.219Z,1336.00
2018-04-06T05:26:43.561Z,1400.00
2018-04-06T05:27:43.644Z,1436.00
2018-04-06T05:28:43.720Z,1456.00
2018-04-06T05:29:43.803Z,1488.00
2018-04-06T05:30:43.895Z,1520.00
2018-04-06T05:31:43.985Z,1576.00
2018-04-06T05:32:44.079Z,1604.00
2018-04-06T05:33:44.209Z,1636.00
2018-04-06T05:34:44.253Z,1684.00
2018-04-06T05:35:44.328Z,1764.00
2018-04-06T05:36:44.436Z,1808.00
2018-04-06T05:37:44.540Z,1796.00
2018-04-06T05:38:44.732Z,1856.00
2018-04-06T05:39:44.717Z,1944.00
2018-04-06T05:40:44.801Z,1972.00
2018-04-06T05:41:44.888Z,1992.00
2018-04-06T05:42:44.977Z,2032.00
2018-04-06T05:43:45.044Z,2092.00
2018-04-06T05:44:45.160Z,2148.00
2018-04-06T05:45:45.251Z,2216.00
2018-04-06T05:46:45.370Z,2264.00
2018-04-06T05:47:45.456Z,2264.00
2018-04-06T05:48:45.562Z,2228.00
2018-04-06T05:49:45.673Z,2184.00
2018-04-06T05:50:45.787Z,2200.00
2018-04-06T05:51:45.867Z,2252.00
2018-04-06T05:52:45.999Z,2280.00
2018-04-06T05:53:45.989Z,2308.00
2018-04-06T05:54:46.071Z,2344.00
2018-04-06T05:55:46.151Z,2380.00
2018-04-06T05:56:46.228Z,2392.00
2018-04-06T05:57:46.475Z,2416.00
2018-04-06T05:58:46.444Z,2468.00
2018-04-06T05:59:46.532Z,2528.00
2018-04-06T06:00:46.615Z,2564.00
2018-04-06T06:01:46.708Z,2580.00
2018-04-06T06:02:46.793Z,2592.00
2018-04-06T06:03:46.887Z,2664.00
2018-04-06T06:04:46.972Z,2644.00
2018-04-06T06:05:47.062Z,2660.00
2018-04-06T06:06:47.148Z,2684.00
2018-04-06T06:07:47.237Z,2732.00
2018-04-06T06:08:47.343Z,2708.00
2018-04-06T06:09:47.434Z,2728.00
2018-04-06T06:10:47.498Z,2676.00
2018-04-06T06:11:47.587Z,2668.00
2018-04-06T06:12:47.676Z,2744.00
2018-04-06T06:13:47.767Z,2720.00
2018-04-06T06:14:47.855Z,2764.00
2018-04-06T06:15:47.946Z,2856.00
2018-04-06T06:16:48.031Z,3184.00
2018-04-06T06:17:48.136Z,4696.00
2018-04-06T06:18:48.203Z,11948.00
2018-04-06T06:19:48.289Z,17472.00
2018-04-06T06:20:48.382Z,15872.00
2018-04-06T06:21:48.469Z,12264.00
2018-04-06T06:22:48.561Z,11328.00
2018-04-06T06:23:48.646Z,15072.00
2018-04-06T06:24:48.760Z,17696.00
2018-04-06T06:25:48.845Z,17632.00
2018-04-06T06:26:48.933Z,16704.00
2018-04-06T06:27:49.108Z,16864.00
2018-04-06T06:28:49.160Z,17760.00
2018-04-06T06:29:49.238Z,17312.00
2018-04-06T06:30:49.345Z,15936.00
2018-04-06T06:31:49.500Z,14688.00
2018-04-06T06:32:49.590Z,14784.00
2018-04-06T06:33:49.678Z,15968.00
2018-04-06T06:34:49.772Z,16384.00
2018-04-06T06:35:49.866Z,16288.00
2018-04-06T06:36:49.975Z,15840.00
2018-04-06T06:37:50.044Z,16256.00
2018-04-06T06:38:50.133Z,16064.00
2018-04-06T06:39:50.224Z,15552.00
2018-04-06T06:40:50.312Z,15232.00
2018-04-06T06:41:50.406Z,16064.00
2018-04-06T06:42:50.512Z,14624.00
2018-04-06T06:43:50.583Z,14272.00
2018-04-06T06:44:50.676Z,15232.00
2018-04-06T06:45:50.784Z,16192.00
2018-04-06T06:46:50.899Z,15872.00
2018-04-06T06:47:51.046Z,14912.00
2018-04-06T06:48:51.152Z,14464.00
2018-04-06T06:49:51.249Z,14560.00
2018-04-06T06:50:51.332Z,14912.00
2018-04-06T06:51:51.453Z,14784.00
2018-04-06T06:52:51.541Z,14208.00
2018-04-06T06:53:51.710Z,13764.00
2018-04-06T06:54:51.705Z,14328.00
2018-04-06T06:55:51.831Z,14640.00
2018-04-06T06:56:51.921Z,13924.00
2018-04-06T06:57:52.044Z,13128.00
2018-04-06T06:58:52.182Z,12604.00
2018-04-06T06:59:52.218Z,12112.00
2018-04-06T07:00:52.322Z,11436.00
2018-04-06T07:01:52.612Z,11336.00
2018-04-06T07:02:52.652Z,11040.00
2018-04-06T07:03:52.897Z,10980.00
2018-04-06T07:04:52.679Z,11312.00
2018-04-06T07:05:52.797Z,11076.00
2018-04-06T07:06:52.918Z,10432.00
2018-04-06T07:07:53.036Z,10560.00
2018-04-06T07:08:53.054Z,10500.00
2018-04-06T07:09:53.181Z,9916.00
2018-04-06T07:10:53.198Z,9340.00
2018-04-06T07:11:53.390Z,9752.00
2018-04-06T07:12:53.369Z,9828.00
2018-04-06T07:13:53.465Z,9604.00
2018-04-06T07:14:53.553Z,9448.00
2018-04-06T07:15:53.630Z,8992.00
2018-04-06T07:16:53.746Z,8172.00
2018-04-06T07:17:53.834Z,7856.00
2018-04-06T07:18:53.967Z,8316.00
2018-04-06T07:19:54.226Z,8076.00
2018-04-06T07:20:54.146Z,7860.00
2018-04-06T07:21:54.285Z,8016.00
2018-04-06T07:22:54.324Z,7504.00
2018-04-06T07:23:54.458Z,7308.00
2018-04-06T07:24:54.437Z,7104.00
2018-04-06T07:25:54.537Z,6764.00
2018-04-06T07:26:54.691Z,6776.00
2018-04-06T07:27:54.821Z,6600.00
2018-04-06T07:28:54.924Z,6320.00
2018-04-06T07:29:55.017Z,6052.00
2018-04-06T07:30:55.140Z,5844.00
2018-04-06T07:31:55.242Z,5960.00
2018-04-06T07:32:55.391Z,5840.00
2018-04-06T07:33:55.496Z,5856.00
2018-04-06T07:34:55.625Z,5716.00
2018-04-06T07:35:55.720Z,5396.00
2018-04-06T07:36:55.833Z,4804.00
2018-04-06T07:37:55.919Z,4152.00
2018-04-06T07:38:56.013Z,3992.00
2018-04-06T07:39:56.097Z,3760.00
2018-04-06T07:40:56.215Z,3756.00
2018-04-06T07:41:56.320Z,3764.00
2018-04-06T07:42:56.431Z,3760.00
2018-04-06T07:43:56.549Z,3760.00
2018-04-06T07:44:56.682Z,3744.00
2018-04-06T07:45:56.771Z,3760.00
2018-04-06T07:46:56.887Z,3764.00
2018-04-06T07:47:56.986Z,3816.00
2018-04-06T07:48:57.088Z,3784.00
2018-04-06T07:49:57.180Z,3796.00
2018-04-06T07:50:57.289Z,3856.00
2018-04-06T07:51:57.451Z,3812.00
2018-04-06T07:52:57.430Z,3732.00
2018-04-06T07:53:57.593Z,3832.00
2018-04-06T07:54:57.589Z,3740.00
2018-04-06T07:55:57.688Z,3848.00
2018-04-06T07:56:57.792Z,3856.00
2018-04-06T07:57:57.900Z,3864.00
2018-04-06T07:58:57.999Z,3840.00
2018-04-06T07:59:58.179Z,3848.00
2018-04-06T08:00:58.134Z,3884.00
2018-04-06T08:01:58.263Z,3896.00
2018-04-06T08:02:58.369Z,3904.00
2018-04-06T08:03:58.467Z,3900.00
2018-04-06T08:04:58.559Z,3932.00
2018-04-06T08:05:58.665Z,3932.00
2018-04-06T08:06:58.758Z,3880.00
2018-04-06T08:07:58.863Z,3992.00
2018-04-06T08:08:59.045Z,4148.00
2018-04-06T08:09:59.039Z,4004.00
2018-04-06T08:10:59.168Z,4012.00
2018-04-06T08:11:59.210Z,3984.00
2018-04-06T08:12:59.251Z,4048.00
2018-04-06T08:13:59.344Z,4044.00
2018-04-06T08:14:59.461Z,4056.00
2018-04-06T08:15:59.545Z,4144.00
2018-04-06T08:16:59.687Z,4072.00
2018-04-06T08:17:59.776Z,4060.00
2018-04-06T08:18:59.912Z,4092.00
2018-04-06T08:20:00.035Z,4108.00
2018-04-06T08:21:00.149Z,4096.00
2018-04-06T08:22:00.232Z,4132.00
2018-04-06T08:23:00.322Z,4144.00
2018-04-06T08:24:00.418Z,4108.00
2018-04-06T08:25:00.514Z,4224.00
2018-04-06T08:26:00.619Z,4180.00
2018-04-06T08:27:00.746Z,4172.00
2018-04-06T08:28:00.843Z,4184.00
2018-04-06T08:29:00.953Z,4228.00
2018-04-06T08:30:01.040Z,4220.00
2018-04-06T08:31:01.130Z,4228.00
2018-04-06T08:32:01.313Z,4248.00
2018-04-06T08:33:01.308Z,4252.00
2018-04-06T08:34:01.415Z,4264.00
2018-04-06T08:35:01.499Z,4264.00
2018-04-06T08:36:01.599Z,4276.00
2018-04-06T08:37:01.674Z,4288.00
2018-04-06T08:38:01.794Z,4304.00
2018-04-06T08:39:01.905Z,4284.00
2018-04-06T08:40:01.983Z,4320.00
2018-04-06T08:41:02.071Z,4340.00
2018-04-06T08:42:02.166Z,4308.00
2018-04-06T08:43:02.301Z,4356.00
2018-04-06T08:44:02.381Z,4364.00
2018-04-06T08:45:02.466Z,4360.00
2018-04-06T08:46:02.568Z,4448.00
2018-04-06T08:47:02.675Z,4396.00
2018-04-06T08:48:02.783Z,4412.00
2018-04-06T08:49:02.859Z,4420.00
2018-04-06T08:50:02.965Z,4412.00
2018-04-06T08:51:03.077Z,4412.00
2018-04-06T08:52:03.162Z,4444.00
2018-04-06T08:53:03.283Z,4468.00
2018-04-06T08:54:03.384Z,4416.00
2018-04-06T08:55:03.491Z,4480.00
2018-04-06T08:56:03.584Z,4492.00
2018-04-06T08:57:03.688Z,4584.00
2018-04-06T08:58:03.821Z,4508.00
2018-04-06T08:59:03.897Z,4524.00
2018-04-06T09:00:03.982Z,4496.00
2018-04-06T09:01:04.087Z,4536.00
2018-04-06T09:02:04.165Z,4552.00
2018-04-06T09:03:04.251Z,4560.00
2018-04-06T09:04:04.346Z,4560.00
2018-04-06T09:05:04.463Z,4564.00
2018-04-06T09:06:04.559Z,4576.00
2018-04-06T09:07:04.650Z,4596.00
2018-04-06T09:08:04.742Z,4604.00
2018-04-06T09:09:04.833Z,4500.00
2018-04-06T09:10:04.927Z,4800.00
2018-04-06T09:11:05.022Z,4628.00
2018-04-06T09:12:05.114Z,4628.00
2018-04-06T09:13:05.206Z,4660.00
2018-04-06T09:14:05.300Z,4668.00
2018-04-06T09:15:05.396Z,4652.00
2018-04-06T09:16:05.513Z,4680.00
2018-04-06T09:17:05.611Z,4772.00
2018-04-06T09:18:05.706Z,4696.00
2018-04-06T09:19:05.806Z,4776.00
2018-04-06T09:20:05.897Z,4788.00
2018-04-06T09:21:05.996Z,5044.00
2018-04-06T09:22:06.092Z,4820.00
2018-04-06T09:23:06.185Z,4756.00
2018-04-06T09:24:06.275Z,4856.00
2018-04-06T09:25:06.370Z,4808.00
2018-04-06T09:26:06.463Z,4864.00
2018-04-06T09:27:06.560Z,4876.00
2018-04-06T09:28:06.644Z,4908.00
2018-04-06T09:29:06.740Z,4920.00
2018-04-06T09:30:06.834Z,4920.00
2018-04-06T09:31:06.933Z,4924.00
2018-04-06T09:32:07.028Z,5016.00
2018-04-06T09:33:07.120Z,4956.00
2018-04-06T09:34:07.214Z,4984.00
2018-04-06T09:35:07.311Z,5020.00
2018-04-06T09:36:07.403Z,5028.00
2018-04-06T09:37:07.499Z,5024.00
2018-04-06T09:38:07.589Z,5016.00
2018-04-06T09:39:07.683Z,5044.00
2018-04-06T09:40:07.775Z,5296.00
2018-04-06T09:41:07.870Z,5084.00
2018-04-06T09:42:07.960Z,5104.00
2018-04-06T09:43:08.058Z,5104.00
2018-04-06T09:44:08.149Z,5112.00
2018-04-06T09:45:08.243Z,5060.00
2018-04-06T09:46:08.336Z,5048.00
2018-04-06T09:47:08.432Z,5156.00
2018-04-06T09:48:08.526Z,5156.00
2018-04-06T09:49:08.621Z,5164.00
2018-04-06T09:50:08.718Z,5180.00
2018-04-06T09:51:08.807Z,5192.00
2018-04-06T09:52:08.903Z,5192.00
2018-04-06T09:53:09.000Z,5184.00
2018-04-06T09:54:09.099Z,5148.00
2018-04-06T09:55:09.195Z,5184.00
2018-04-06T09:56:09.294Z,5124.00
2018-04-06T09:57:09.385Z,5100.00
2018-04-06T09:58:09.479Z,5252.00
2018-04-06T09:59:09.575Z,5156.00
2018-04-06T10:00:09.669Z,5156.00
2018-04-06T10:01:09.760Z,5132.00
2018-04-06T10:02:09.854Z,5144.00
2018-04-06T10:03:09.950Z,5064.00
2018-04-06T10:04:10.045Z,5172.00
2018-04-06T10:05:10.141Z,5124.00
2018-04-06T10:06:10.235Z,5300.00
2018-04-06T10:07:10.333Z,5152.00
2018-04-06T10:08:10.425Z,5160.00
2018-04-06T10:09:10.524Z,5148.00
2018-04-06T10:10:10.620Z,5140.00
2018-04-06T10:11:10.712Z,5152.00
2018-04-06T10:12:10.807Z,5152.00
2018-04-06T10:13:10.908Z,5108.00
2018-04-06T10:14:10.993Z,5152.00
2018-04-06T10:15:11.090Z,5140.00
2018-04-06T10:16:11.180Z,5140.00
2018-04-06T10:17:11.270Z,5100.00
2018-04-06T10:18:11.363Z,5112.00
2018-04-06T10:19:11.458Z,5100.00
2018-04-06T10:20:11.574Z,5156.00
2018-04-06T10:21:11.672Z,5096.00
2018-04-06T10:22:11.765Z,5068.00
2018-04-06T10:23:11.860Z,5112.00
2018-04-06T10:24:11.964Z,5128.00
2018-04-06T10:25:12.051Z,5052.00
2018-04-06T10:26:12.148Z,5072.00
2018-04-06T10:27:12.241Z,5088.00
2018-04-06T10:28:12.333Z,5016.00
2018-04-06T10:29:12.436Z,5064.00
2018-04-06T10:30:12.527Z,5084.00
2018-04-06T10:31:12.624Z,5020.00
2018-04-06T10:32:12.720Z,5080.00
2018-04-06T10:33:12.857Z,5292.00
2018-04-06T10:34:12.913Z,4976.00
2018-04-06T10:35:13.009Z,5288.00
2018-04-06T10:36:13.103Z,5180.00
2018-04-06T10:37:13.198Z,5064.00
2018-04-06T10:38:13.296Z,5064.00
2018-04-06T10:39:13.389Z,5040.00
2018-04-06T10:40:13.498Z,4940.00
2018-04-06T10:41:13.592Z,5248.00
2018-04-06T10:42:13.683Z,5080.00
2018-04-06T10:43:13.771Z,5180.00
2018-04-06T10:44:13.866Z,5028.00
2018-04-06T10:45:13.965Z,5024.00
2018-04-06T10:46:14.059Z,5020.00
2018-04-06T10:47:14.162Z,5028.00
2018-04-06T10:48:14.253Z,5544.00
2018-04-06T10:49:14.354Z,5032.00
2018-04-06T10:50:14.447Z,5056.00
2018-04-06T10:51:14.545Z,5052.00
2018-04-06T10:52:14.637Z,6844.00
2018-04-06T10:53:14.734Z,5064.00
2018-04-06T10:54:14.828Z,5012.00
2018-04-06T10:55:14.921Z,5064.00
2018-04-06T10:56:15.019Z,5064.00
2018-04-06T10:57:15.115Z,5260.00
2018-04-06T10:58:15.212Z,5076.00
2018-04-06T10:59:15.315Z,4996.00
2018-04-06T11:00:15.424Z,5076.00
2018-04-06T11:01:15.519Z,5060.00
2018-04-06T11:02:15.612Z,5048.00
2018-04-06T11:03:15.716Z,5048.00
2018-04-06T11:04:15.805Z,5512.00
2018-04-06T11:05:15.906Z,5092.00
2018-04-06T11:06:15.997Z,5096.00
2018-04-06T11:07:16.094Z,5104.00
2018-04-06T11:08:16.190Z,5092.00
2018-04-06T11:09:16.290Z,5104.00
2018-04-06T11:10:16.382Z,5224.00
2018-04-06T11:11:16.480Z,5108.00
2018-04-06T11:12:16.574Z,5044.00
2018-04-06T11:13:16.672Z,5324.00
2018-04-06T11:14:16.763Z,5116.00
2018-04-06T11:15:16.861Z,5104.00
2018-04-06T11:16:16.962Z,5056.00
2018-04-06T11:17:17.054Z,5104.00
2018-04-06T11:18:17.150Z,4904.00
2018-04-06T11:19:17.250Z,5180.00
2018-04-06T11:20:17.357Z,5124.00
2018-04-06T11:21:17.446Z,5132.00
2018-04-06T11:22:17.540Z,5136.00
2018-04-06T11:23:17.643Z,5728.00
2018-04-06T11:24:17.740Z,5360.00
2018-04-06T11:25:17.835Z,5332.00
2018-04-06T11:26:17.930Z,5160.00
2018-04-06T11:27:18.024Z,5364.00
2018-04-06T11:28:18.123Z,5168.00
2018-04-06T11:29:18.232Z,4988.00
2018-04-06T11:30:18.316Z,5008.00
2018-04-06T11:31:18.411Z,5344.00
2018-04-06T11:32:18.511Z,5176.00
2018-04-06T11:33:18.603Z,5180.00
2018-04-06T11:34:18.708Z,5180.00
2018-04-06T11:35:18.795Z,5016.00
2018-04-06T11:36:18.892Z,5192.00
2018-04-06T11:37:18.989Z,5192.00
2018-04-06T11:38:19.081Z,5196.00
2018-04-06T11:39:19.187Z,5188.00
2018-04-06T11:40:19.286Z,5184.00
2018-04-06T11:41:19.384Z,5204.00
2018-04-06T11:42:19.476Z,5504.00
2018-04-06T11:43:19.575Z,6308.00
2018-04-06T11:44:19.674Z,5720.00
2018-04-06T11:45:19.766Z,5104.00
2018-04-06T11:46:19.869Z,5112.00
2018-04-06T11:47:19.961Z,5052.00
2018-04-06T11:48:20.060Z,5116.00
2018-04-06T11:49:20.157Z,5104.00
2018-04-06T11:50:20.256Z,5128.00
2018-04-06T11:51:20.353Z,5092.00
2018-04-06T11:52:20.445Z,5120.00
2018-04-06T11:53:20.540Z,5128.00
2018-04-06T11:54:20.633Z,5340.00
2018-04-06T11:55:20.718Z,5144.00
2018-04-06T11:56:20.801Z,5148.00
2018-04-06T11:57:20.911Z,5144.00
2018-04-06T11:58:21.054Z,5160.00
2018-04-06T11:59:21.157Z,5156.00
2018-04-06T12:00:21.245Z,9144.00
2018-04-06T12:01:21.329Z,5148.00
2018-04-06T12:02:21.415Z,5164.00
2018-04-06T12:03:21.523Z,5180.00
2018-04-06T12:04:21.609Z,5068.00
2018-04-06T12:05:21.693Z,5204.00
2018-04-06T12:06:21.806Z,5716.00
2018-04-06T12:07:21.913Z,5812.00
2018-04-06T12:08:21.992Z,5180.00
2018-04-06T12:09:22.074Z,6700.00
2018-04-06T12:10:22.156Z,5300.00
2018-04-06T12:11:22.256Z,5200.00
2018-04-06T12:12:22.336Z,5512.00
2018-04-06T12:13:22.451Z,5116.00
2018-04-06T12:14:22.571Z,5208.00
2018-04-06T12:15:22.684Z,5268.00
2018-04-06T12:16:22.777Z,5120.00
2018-04-06T12:17:22.882Z,5216.00
2018-04-06T12:18:22.982Z,5200.00
2018-04-06T12:19:23.073Z,5220.00
2018-04-06T12:20:23.156Z,5180.00
2018-04-06T12:21:23.236Z,5224.00
2018-04-06T12:22:23.328Z,5188.00
2018-04-06T12:23:23.494Z,5152.00
2018-04-06T12:24:23.598Z,5248.00
2018-04-06T12:25:23.718Z,5252.00
2018-04-06T12:26:23.850Z,5144.00
2018-04-06T12:27:23.978Z,5244.00
2018-04-06T12:28:24.043Z,5228.00
2018-04-06T12:29:24.197Z,5252.00
2018-04-06T12:30:24.343Z,5248.00
2018-04-06T12:31:24.414Z,5512.00